sensor_id;sensor_type;location;lat;lon;timestamp;P1;durP1;ratioP1;P2;durP2;ratioP2
36663;SDS011;53333;51.976;20.144;2023-05-07T00:02:10;6.73;;;4.37;;
36663;SDS011;53333;51.976;20.144;2023-05-07T00:04:43;7.50;;;5.05;;
36663;SDS011;53333;51.976;20.144;2023-05-07T00:07:18;7.95;;;4.20;;
36663;SDS011;53333;51.976;20.144;2023-05-07T00:09:51;8.70;;;4.78;;
36663;SDS011;53333;51.976;20.144;2023-05-07T00:12:24;9.35;;;5.15;;
36663;SDS011;53333;51.976;20.144;2023-05-07T00:14:57;10.33;;;5.17;;
36663;SDS011;53333;51.976;20.144;2023-05-07T00:17:30;6.97;;;4.37;;
36663;SDS011;53333;51.976;20.144;2023-05-07T00:20:04;6.32;;;4.72;;
36663;SDS011;53333;51.976;20.144;2023-05-07T00:22:39;7.85;;;4.90;;
36663;SDS011;53333;51.976;20.144;2023-05-07T00:25:11;7.68;;;4.72;;
36663;SDS011;53333;51.976;20.144;2023-05-07T00:27:44;8.43;;;4.67;;
36663;SDS011;53333;51.976;20.144;2023-05-07T00:30:17;13.87;;;4.77;;
36663;SDS011;53333;51.976;20.144;2023-05-07T00:32:50;6.13;;;4.32;;
36663;SDS011;53333;51.976;20.144;2023-05-07T00:35:23;6.57;;;4.80;;
36663;SDS011;53333;51.976;20.144;2023-05-07T00:37:58;10.23;;;4.60;;
36663;SDS011;53333;51.976;20.144;2023-05-07T00:40:31;5.68;;;4.03;;
36663;SDS011;53333;51.976;20.144;2023-05-07T00:43:04;9.40;;;4.37;;
36663;SDS011;53333;51.976;20.144;2023-05-07T00:45:37;11.18;;;4.97;;
36663;SDS011;53333;51.976;20.144;2023-05-07T00:48:10;7.30;;;4.50;;
36663;SDS011;53333;51.976;20.144;2023-05-07T00:50:44;8.23;;;4.70;;
36663;SDS011;53333;51.976;20.144;2023-05-07T00:53:19;8.60;;;4.50;;
36663;SDS011;53333;51.976;20.144;2023-05-07T00:55:53;9.43;;;5.05;;
36663;SDS011;53333;51.976;20.144;2023-05-07T00:58:27;5.85;;;4.43;;
36663;SDS011;53333;51.976;20.144;2023-05-07T01:01:01;9.68;;;4.70;;
36663;SDS011;53333;51.976;20.144;2023-05-07T01:03:34;5.10;;;4.25;;
36663;SDS011;53333;51.976;20.144;2023-05-07T01:06:08;9.82;;;4.43;;
36663;SDS011;53333;51.976;20.144;2023-05-07T01:08:46;6.25;;;4.50;;
36663;SDS011;53333;51.976;20.144;2023-05-07T01:11:19;7.57;;;4.53;;
36663;SDS011;53333;51.976;20.144;2023-05-07T01:13:53;5.30;;;4.13;;
36663;SDS011;53333;51.976;20.144;2023-05-07T01:16:26;10.05;;;5.18;;
36663;SDS011;53333;51.976;20.144;2023-05-07T01:18:59;4.65;;;4.20;;
36663;SDS011;53333;51.976;20.144;2023-05-07T01:21:33;5.95;;;4.43;;
36663;SDS011;53333;51.976;20.144;2023-05-07T01:24:09;8.60;;;5.85;;
36663;SDS011;53333;51.976;20.144;2023-05-07T01:26:43;7.25;;;4.88;;
36663;SDS011;53333;51.976;20.144;2023-05-07T01:29:19;7.82;;;4.65;;
36663;SDS011;53333;51.976;20.144;2023-05-07T01:31:52;9.40;;;4.93;;
36663;SDS011;53333;51.976;20.144;2023-05-07T01:34:26;5.70;;;4.55;;
36663;SDS011;53333;51.976;20.144;2023-05-07T01:37:02;7.60;;;4.80;;
36663;SDS011;53333;51.976;20.144;2023-05-07T01:39:37;6.65;;;4.15;;
36663;SDS011;53333;51.976;20.144;2023-05-07T01:42:12;4.90;;;4.10;;
36663;SDS011;53333;51.976;20.144;2023-05-07T01:44:45;6.47;;;4.45;;
36663;SDS011;53333;51.976;20.144;2023-05-07T01:47:18;7.13;;;4.80;;
36663;SDS011;53333;51.976;20.144;2023-05-07T01:49:53;7.35;;;3.97;;
36663;SDS011;53333;51.976;20.144;2023-05-07T01:55:01;6.07;;;3.90;;
36663;SDS011;53333;51.976;20.144;2023-05-07T01:57:34;7.07;;;4.03;;
36663;SDS011;53333;51.976;20.144;2023-05-07T02:00:08;6.15;;;4.10;;
36663;SDS011;53333;51.976;20.144;2023-05-07T02:02:48;4.35;;;3.90;;
36663;SDS011;53333;51.976;20.144;2023-05-07T02:05:32;5.75;;;4.28;;
36663;SDS011;53333;51.976;20.144;2023-05-07T02:08:10;7.32;;;4.03;;
36663;SDS011;53333;51.976;20.144;2023-05-07T02:10:45;5.17;;;4.20;;
36663;SDS011;53333;51.976;20.144;2023-05-07T02:13:17;6.63;;;4.13;;
36663;SDS011;53333;51.976;20.144;2023-05-07T02:15:51;6.00;;;4.38;;
36663;SDS011;53333;51.976;20.144;2023-05-07T02:18:26;4.93;;;3.88;;
36663;SDS011;53333;51.976;20.144;2023-05-07T02:20:59;5.00;;;3.97;;
36663;SDS011;53333;51.976;20.144;2023-05-07T02:23:32;7.17;;;4.27;;
36663;SDS011;53333;51.976;20.144;2023-05-07T02:26:07;5.25;;;4.35;;
36663;SDS011;53333;51.976;20.144;2023-05-07T02:28:40;7.43;;;4.28;;
36663;SDS011;53333;51.976;20.144;2023-05-07T02:33:47;4.18;;;3.47;;
36663;SDS011;53333;51.976;20.144;2023-05-07T02:36:20;6.25;;;4.40;;
36663;SDS011;53333;51.976;20.144;2023-05-07T02:39:01;6.88;;;4.20;;
36663;SDS011;53333;51.976;20.144;2023-05-07T02:44:09;9.38;;;4.53;;
36663;SDS011;53333;51.976;20.144;2023-05-07T02:46:43;7.25;;;4.03;;
36663;SDS011;53333;51.976;20.144;2023-05-07T02:49:17;8.65;;;4.75;;
36663;SDS011;53333;51.976;20.144;2023-05-07T02:51:50;8.43;;;4.38;;
36663;SDS011;53333;51.976;20.144;2023-05-07T02:54:27;6.68;;;4.93;;
36663;SDS011;53333;51.976;20.144;2023-05-07T02:57:01;6.20;;;4.65;;
36663;SDS011;53333;51.976;20.144;2023-05-07T02:59:34;8.60;;;4.60;;
36663;SDS011;53333;51.976;20.144;2023-05-07T03:02:08;6.78;;;4.63;;
36663;SDS011;53333;51.976;20.144;2023-05-07T03:04:41;4.80;;;4.00;;
36663;SDS011;53333;51.976;20.144;2023-05-07T03:07:13;7.43;;;4.20;;
36663;SDS011;53333;51.976;20.144;2023-05-07T03:09:46;7.23;;;4.83;;
36663;SDS011;53333;51.976;20.144;2023-05-07T03:12:21;4.38;;;3.40;;
36663;SDS011;53333;51.976;20.144;2023-05-07T03:14:53;6.13;;;4.50;;
36663;SDS011;53333;51.976;20.144;2023-05-07T03:17:27;9.52;;;5.05;;
36663;SDS011;53333;51.976;20.144;2023-05-07T03:20:00;5.10;;;4.30;;
36663;SDS011;53333;51.976;20.144;2023-05-07T03:22:33;6.35;;;3.95;;
36663;SDS011;53333;51.976;20.144;2023-05-07T03:25:07;7.13;;;4.22;;
36663;SDS011;53333;51.976;20.144;2023-05-07T03:27:42;5.30;;;4.13;;
36663;SDS011;53333;51.976;20.144;2023-05-07T03:30:15;6.25;;;4.47;;
36663;SDS011;53333;51.976;20.144;2023-05-07T03:32:48;4.93;;;3.63;;
36663;SDS011;53333;51.976;20.144;2023-05-07T03:35:21;6.47;;;4.10;;
36663;SDS011;53333;51.976;20.144;2023-05-07T03:37:54;3.87;;;3.43;;
36663;SDS011;53333;51.976;20.144;2023-05-07T03:40:27;4.18;;;3.35;;
36663;SDS011;53333;51.976;20.144;2023-05-07T03:43:02;6.25;;;3.97;;
36663;SDS011;53333;51.976;20.144;2023-05-07T03:45:37;5.45;;;3.60;;
36663;SDS011;53333;51.976;20.144;2023-05-07T03:48:18;4.78;;;3.92;;
36663;SDS011;53333;51.976;20.144;2023-05-07T03:50:52;4.88;;;3.70;;
36663;SDS011;53333;51.976;20.144;2023-05-07T03:53:25;5.53;;;3.90;;
36663;SDS011;53333;51.976;20.144;2023-05-07T03:55:58;4.23;;;3.50;;
36663;SDS011;53333;51.976;20.144;2023-05-07T03:58:35;5.50;;;3.63;;
36663;SDS011;53333;51.976;20.144;2023-05-07T04:01:12;4.68;;;3.60;;
36663;SDS011;53333;51.976;20.144;2023-05-07T04:03:45;5.33;;;3.87;;
36663;SDS011;53333;51.976;20.144;2023-05-07T04:06:18;4.30;;;3.58;;
36663;SDS011;53333;51.976;20.144;2023-05-07T04:08:52;5.03;;;4.20;;
36663;SDS011;53333;51.976;20.144;2023-05-07T04:11:26;4.53;;;3.90;;
36663;SDS011;53333;51.976;20.144;2023-05-07T04:14:01;5.65;;;3.85;;
36663;SDS011;53333;51.976;20.144;2023-05-07T04:16:34;8.27;;;4.03;;
36663;SDS011;53333;51.976;20.144;2023-05-07T04:19:07;6.47;;;4.85;;
36663;SDS011;53333;51.976;20.144;2023-05-07T04:21:42;8.02;;;4.18;;
36663;SDS011;53333;51.976;20.144;2023-05-07T04:24:15;7.97;;;4.43;;
36663;SDS011;53333;51.976;20.144;2023-05-07T04:26:49;6.97;;;3.92;;
36663;SDS011;53333;51.976;20.144;2023-05-07T04:29:26;4.72;;;3.70;;
36663;SDS011;53333;51.976;20.144;2023-05-07T04:32:00;5.05;;;3.53;;
36663;SDS011;53333;51.976;20.144;2023-05-07T04:34:33;3.72;;;3.10;;
36663;SDS011;53333;51.976;20.144;2023-05-07T04:37:06;5.07;;;3.88;;
36663;SDS011;53333;51.976;20.144;2023-05-07T04:39:39;6.00;;;4.82;;
36663;SDS011;53333;51.976;20.144;2023-05-07T04:42:14;6.40;;;3.63;;
36663;SDS011;53333;51.976;20.144;2023-05-07T04:44:52;4.78;;;3.90;;
36663;SDS011;53333;51.976;20.144;2023-05-07T04:47:27;4.30;;;3.38;;
36663;SDS011;53333;51.976;20.144;2023-05-07T04:50:01;5.57;;;3.72;;
36663;SDS011;53333;51.976;20.144;2023-05-07T04:52:34;5.23;;;3.03;;
36663;SDS011;53333;51.976;20.144;2023-05-07T04:55:08;4.00;;;3.60;;
36663;SDS011;53333;51.976;20.144;2023-05-07T04:57:43;3.70;;;3.30;;
36663;SDS011;53333;51.976;20.144;2023-05-07T05:00:20;5.65;;;3.88;;
36663;SDS011;53333;51.976;20.144;2023-05-07T05:02:54;6.60;;;4.32;;
36663;SDS011;53333;51.976;20.144;2023-05-07T05:05:28;5.80;;;4.47;;
36663;SDS011;53333;51.976;20.144;2023-05-07T05:10:35;4.43;;;3.15;;
36663;SDS011;53333;51.976;20.144;2023-05-07T05:13:09;5.70;;;3.15;;
36663;SDS011;53333;51.976;20.144;2023-05-07T05:15:46;4.57;;;3.50;;
36663;SDS011;53333;51.976;20.144;2023-05-07T05:18:19;5.53;;;2.92;;
36663;SDS011;53333;51.976;20.144;2023-05-07T05:20:52;6.88;;;3.88;;
36663;SDS011;53333;51.976;20.144;2023-05-07T05:23:25;6.47;;;3.73;;
36663;SDS011;53333;51.976;20.144;2023-05-07T05:25:59;8.77;;;3.70;;
36663;SDS011;53333;51.976;20.144;2023-05-07T05:28:35;3.88;;;3.35;;
36663;SDS011;53333;51.976;20.144;2023-05-07T05:31:10;3.50;;;3.20;;
36663;SDS011;53333;51.976;20.144;2023-05-07T05:33:43;5.40;;;3.15;;
36663;SDS011;53333;51.976;20.144;2023-05-07T05:36:16;4.80;;;3.57;;
36663;SDS011;53333;51.976;20.144;2023-05-07T05:38:50;4.70;;;3.42;;
36663;SDS011;53333;51.976;20.144;2023-05-07T05:41:25;3.92;;;3.17;;
36663;SDS011;53333;51.976;20.144;2023-05-07T05:43:59;5.70;;;3.30;;
36663;SDS011;53333;51.976;20.144;2023-05-07T05:46:33;6.53;;;3.53;;
36663;SDS011;53333;51.976;20.144;2023-05-07T05:49:07;7.55;;;3.50;;
36663;SDS011;53333;51.976;20.144;2023-05-07T05:51:42;5.07;;;3.97;;
36663;SDS011;53333;51.976;20.144;2023-05-07T05:54:16;6.68;;;3.88;;
36663;SDS011;53333;51.976;20.144;2023-05-07T05:56:49;5.32;;;3.28;;
36663;SDS011;53333;51.976;20.144;2023-05-07T05:59:22;5.78;;;2.92;;
36663;SDS011;53333;51.976;20.144;2023-05-07T06:01:58;2.80;;;2.55;;
36663;SDS011;53333;51.976;20.144;2023-05-07T06:04:32;5.70;;;2.80;;
36663;SDS011;53333;51.976;20.144;2023-05-07T06:07:07;4.38;;;3.15;;
36663;SDS011;53333;51.976;20.144;2023-05-07T06:09:40;4.80;;;2.63;;
36663;SDS011;53333;51.976;20.144;2023-05-07T06:12:13;5.32;;;3.13;;
36663;SDS011;53333;51.976;20.144;2023-05-07T06:14:47;3.38;;;2.83;;
36663;SDS011;53333;51.976;20.144;2023-05-07T06:17:22;5.88;;;3.42;;
36663;SDS011;53333;51.976;20.144;2023-05-07T06:19:55;4.88;;;2.90;;
36663;SDS011;53333;51.976;20.144;2023-05-07T06:22:28;4.17;;;3.20;;
36663;SDS011;53333;51.976;20.144;2023-05-07T06:25:05;5.63;;;3.20;;
36663;SDS011;53333;51.976;20.144;2023-05-07T06:27:40;4.53;;;3.75;;
36663;SDS011;53333;51.976;20.144;2023-05-07T06:30:13;5.13;;;3.93;;
36663;SDS011;53333;51.976;20.144;2023-05-07T06:32:47;6.50;;;4.13;;
36663;SDS011;53333;51.976;20.144;2023-05-07T06:35:21;4.00;;;2.97;;
36663;SDS011;53333;51.976;20.144;2023-05-07T06:37:54;3.83;;;3.20;;
36663;SDS011;53333;51.976;20.144;2023-05-07T06:40:29;5.32;;;3.70;;
36663;SDS011;53333;51.976;20.144;2023-05-07T06:43:04;5.78;;;3.42;;
36663;SDS011;53333;51.976;20.144;2023-05-07T06:46:06;5.55;;;3.10;;
36663;SDS011;53333;51.976;20.144;2023-05-07T06:48:41;5.78;;;3.75;;
36663;SDS011;53333;51.976;20.144;2023-05-07T06:51:14;3.90;;;3.10;;
36663;SDS011;53333;51.976;20.144;2023-05-07T06:53:47;3.47;;;3.03;;
36663;SDS011;53333;51.976;20.144;2023-05-07T06:56:20;5.43;;;2.80;;
36663;SDS011;53333;51.976;20.144;2023-05-07T06:58:54;3.03;;;2.63;;
36663;SDS011;53333;51.976;20.144;2023-05-07T07:01:27;3.75;;;2.85;;
36663;SDS011;53333;51.976;20.144;2023-05-07T07:04:06;4.18;;;2.85;;
36663;SDS011;53333;51.976;20.144;2023-05-07T07:06:40;3.95;;;3.10;;
36663;SDS011;53333;51.976;20.144;2023-05-07T07:09:16;4.97;;;3.42;;
36663;SDS011;53333;51.976;20.144;2023-05-07T07:11:49;4.80;;;3.47;;
36663;SDS011;53333;51.976;20.144;2023-05-07T07:14:23;10.82;;;5.25;;
36663;SDS011;53333;51.976;20.144;2023-05-07T07:16:57;10.30;;;5.68;;
36663;SDS011;53333;51.976;20.144;2023-05-07T07:19:33;6.45;;;3.90;;
36663;SDS011;53333;51.976;20.144;2023-05-07T07:22:07;6.15;;;4.07;;
36663;SDS011;53333;51.976;20.144;2023-05-07T07:24:49;7.60;;;3.55;;
36663;SDS011;53333;51.976;20.144;2023-05-07T07:27:22;5.65;;;2.85;;
36663;SDS011;53333;51.976;20.144;2023-05-07T07:29:55;5.13;;;3.25;;
36663;SDS011;53333;51.976;20.144;2023-05-07T07:32:29;4.18;;;3.00;;
36663;SDS011;53333;51.976;20.144;2023-05-07T07:35:06;5.07;;;3.35;;
36663;SDS011;53333;51.976;20.144;2023-05-07T07:37:40;4.05;;;3.17;;
36663;SDS011;53333;51.976;20.144;2023-05-07T07:40:13;5.03;;;3.47;;
36663;SDS011;53333;51.976;20.144;2023-05-07T07:42:48;5.72;;;3.33;;
36663;SDS011;53333;51.976;20.144;2023-05-07T07:45:21;3.60;;;2.92;;
36663;SDS011;53333;51.976;20.144;2023-05-07T07:47:56;3.72;;;2.90;;
36663;SDS011;53333;51.976;20.144;2023-05-07T07:50:31;3.80;;;2.17;;
36663;SDS011;53333;51.976;20.144;2023-05-07T07:53:18;3.72;;;2.50;;
36663;SDS011;53333;51.976;20.144;2023-05-07T07:55:51;4.47;;;2.70;;
36663;SDS011;53333;51.976;20.144;2023-05-07T07:58:32;3.55;;;2.60;;
36663;SDS011;53333;51.976;20.144;2023-05-07T08:01:07;5.55;;;3.03;;
36663;SDS011;53333;51.976;20.144;2023-05-07T08:03:40;3.65;;;2.80;;
36663;SDS011;53333;51.976;20.144;2023-05-07T08:06:15;3.10;;;2.67;;
36663;SDS011;53333;51.976;20.144;2023-05-07T08:08:48;5.57;;;3.15;;
36663;SDS011;53333;51.976;20.144;2023-05-07T08:11:21;2.78;;;2.10;;
36663;SDS011;53333;51.976;20.144;2023-05-07T08:13:56;2.33;;;2.03;;
36663;SDS011;53333;51.976;20.144;2023-05-07T08:16:29;2.38;;;2.10;;
36663;SDS011;53333;51.976;20.144;2023-05-07T08:19:04;2.95;;;2.22;;
36663;SDS011;53333;51.976;20.144;2023-05-07T08:21:39;3.72;;;2.50;;
36663;SDS011;53333;51.976;20.144;2023-05-07T08:24:14;2.40;;;2.05;;
36663;SDS011;53333;51.976;20.144;2023-05-07T08:26:49;2.90;;;2.20;;
36663;SDS011;53333;51.976;20.144;2023-05-07T08:29:22;3.65;;;2.47;;
36663;SDS011;53333;51.976;20.144;2023-05-07T08:31:55;5.32;;;3.10;;
36663;SDS011;53333;51.976;20.144;2023-05-07T08:34:28;4.55;;;3.00;;
36663;SDS011;53333;51.976;20.144;2023-05-07T08:37:04;6.60;;;3.08;;
36663;SDS011;53333;51.976;20.144;2023-05-07T08:39:38;3.78;;;2.42;;
36663;SDS011;53333;51.976;20.144;2023-05-07T08:42:18;3.05;;;2.70;;
36663;SDS011;53333;51.976;20.144;2023-05-07T08:44:53;5.55;;;3.65;;
36663;SDS011;53333;51.976;20.144;2023-05-07T08:47:33;4.85;;;3.65;;
36663;SDS011;53333;51.976;20.144;2023-05-07T08:50:11;3.67;;;2.45;;
36663;SDS011;53333;51.976;20.144;2023-05-07T08:52:47;6.40;;;3.10;;
36663;SDS011;53333;51.976;20.144;2023-05-07T08:55:22;5.90;;;3.30;;
36663;SDS011;53333;51.976;20.144;2023-05-07T08:57:56;5.85;;;2.92;;
36663;SDS011;53333;51.976;20.144;2023-05-07T09:00:30;2.90;;;2.60;;
36663;SDS011;53333;51.976;20.144;2023-05-07T09:03:05;3.35;;;2.78;;
36663;SDS011;53333;51.976;20.144;2023-05-07T09:05:40;4.90;;;2.97;;
36663;SDS011;53333;51.976;20.144;2023-05-07T09:08:18;4.13;;;2.10;;
36663;SDS011;53333;51.976;20.144;2023-05-07T09:10:57;5.00;;;2.63;;
36663;SDS011;53333;51.976;20.144;2023-05-07T09:13:30;3.38;;;2.10;;
36663;SDS011;53333;51.976;20.144;2023-05-07T09:16:10;3.08;;;2.53;;
36663;SDS011;53333;51.976;20.144;2023-05-07T09:18:48;3.72;;;2.30;;
36663;SDS011;53333;51.976;20.144;2023-05-07T09:21:24;3.05;;;2.25;;
36663;SDS011;53333;51.976;20.144;2023-05-07T09:24:00;3.72;;;2.33;;
36663;SDS011;53333;51.976;20.144;2023-05-07T09:26:40;4.20;;;2.47;;
36663;SDS011;53333;51.976;20.144;2023-05-07T09:29:15;3.97;;;2.30;;
36663;SDS011;53333;51.976;20.144;2023-05-07T09:31:49;5.35;;;2.70;;
36663;SDS011;53333;51.976;20.144;2023-05-07T09:34:22;5.95;;;2.67;;
36663;SDS011;53333;51.976;20.144;2023-05-07T09:36:56;3.22;;;2.42;;
36663;SDS011;53333;51.976;20.144;2023-05-07T09:39:49;3.63;;;2.30;;
36663;SDS011;53333;51.976;20.144;2023-05-07T09:42:26;4.13;;;2.65;;
36663;SDS011;53333;51.976;20.144;2023-05-07T09:45:04;5.25;;;3.10;;
36663;SDS011;53333;51.976;20.144;2023-05-07T09:47:41;3.92;;;2.20;;
36663;SDS011;53333;51.976;20.144;2023-05-07T09:50:17;4.78;;;2.60;;
36663;SDS011;53333;51.976;20.144;2023-05-07T09:52:51;3.92;;;2.53;;
36663;SDS011;53333;51.976;20.144;2023-05-07T09:55:28;3.33;;;2.90;;
36663;SDS011;53333;51.976;20.144;2023-05-07T09:58:01;3.05;;;2.40;;
36663;SDS011;53333;51.976;20.144;2023-05-07T10:00:37;2.85;;;2.30;;
36663;SDS011;53333;51.976;20.144;2023-05-07T10:03:15;8.70;;;2.65;;
36663;SDS011;53333;51.976;20.144;2023-05-07T10:05:57;7.00;;;2.30;;
36663;SDS011;53333;51.976;20.144;2023-05-07T10:08:31;5.63;;;2.60;;
36663;SDS011;53333;51.976;20.144;2023-05-07T10:11:07;5.32;;;2.50;;
36663;SDS011;53333;51.976;20.144;2023-05-07T10:13:42;4.43;;;2.72;;
36663;SDS011;53333;51.976;20.144;2023-05-07T10:16:15;5.40;;;2.55;;
36663;SDS011;53333;51.976;20.144;2023-05-07T10:18:52;2.70;;;2.40;;
36663;SDS011;53333;51.976;20.144;2023-05-07T10:21:28;3.15;;;2.85;;
36663;SDS011;53333;51.976;20.144;2023-05-07T10:24:05;3.15;;;2.40;;
36663;SDS011;53333;51.976;20.144;2023-05-07T10:26:48;3.72;;;2.60;;
36663;SDS011;53333;51.976;20.144;2023-05-07T10:29:28;6.72;;;2.95;;
36663;SDS011;53333;51.976;20.144;2023-05-07T10:34:47;8.00;;;4.75;;
36663;SDS011;53333;51.976;20.144;2023-05-07T10:37:23;8.13;;;2.97;;
36663;SDS011;53333;51.976;20.144;2023-05-07T10:39:59;5.93;;;3.67;;
36663;SDS011;53333;51.976;20.144;2023-05-07T10:42:36;4.88;;;3.47;;
36663;SDS011;53333;51.976;20.144;2023-05-07T10:45:13;3.97;;;3.33;;
36663;SDS011;53333;51.976;20.144;2023-05-07T10:48:11;3.78;;;2.97;;
36663;SDS011;53333;51.976;20.144;2023-05-07T10:51:19;5.93;;;4.13;;
36663;SDS011;53333;51.976;20.144;2023-05-07T10:54:20;12.63;;;6.00;;
36663;SDS011;53333;51.976;20.144;2023-05-07T11:03:25;4.63;;;2.85;;
36663;SDS011;53333;51.976;20.144;2023-05-07T11:06:11;4.38;;;3.63;;
36663;SDS011;53333;51.976;20.144;2023-05-07T11:09:14;4.07;;;2.95;;
36663;SDS011;53333;51.976;20.144;2023-05-07T11:11:57;4.47;;;3.13;;
36663;SDS011;53333;51.976;20.144;2023-05-07T11:14:45;4.20;;;2.67;;
36663;SDS011;53333;51.976;20.144;2023-05-07T11:17:51;3.33;;;2.55;;
36663;SDS011;53333;51.976;20.144;2023-05-07T11:23:56;5.03;;;2.58;;
36663;SDS011;53333;51.976;20.144;2023-05-07T11:26:41;5.55;;;2.60;;
36663;SDS011;53333;51.976;20.144;2023-05-07T11:29:20;3.40;;;2.83;;
36663;SDS011;53333;51.976;20.144;2023-05-07T11:31:59;6.60;;;3.65;;
36663;SDS011;53333;51.976;20.144;2023-05-07T11:34:41;3.88;;;3.00;;
36663;SDS011;53333;51.976;20.144;2023-05-07T11:37:16;4.32;;;3.13;;
36663;SDS011;53333;51.976;20.144;2023-05-07T11:40:03;4.18;;;2.95;;
36663;SDS011;53333;51.976;20.144;2023-05-07T11:42:38;4.80;;;3.00;;
36663;SDS011;53333;51.976;20.144;2023-05-07T11:45:22;5.25;;;2.90;;
36663;SDS011;53333;51.976;20.144;2023-05-07T11:47:56;5.38;;;3.10;;
36663;SDS011;53333;51.976;20.144;2023-05-07T11:50:31;4.53;;;3.63;;
36663;SDS011;53333;51.976;20.144;2023-05-07T11:53:07;3.17;;;2.53;;
36663;SDS011;53333;51.976;20.144;2023-05-07T11:55:40;5.55;;;2.83;;
36663;SDS011;53333;51.976;20.144;2023-05-07T11:58:18;5.25;;;2.97;;
36663;SDS011;53333;51.976;20.144;2023-05-07T12:00:54;4.55;;;2.95;;
36663;SDS011;53333;51.976;20.144;2023-05-07T12:03:27;7.82;;;2.90;;
36663;SDS011;53333;51.976;20.144;2023-05-07T12:06:07;10.52;;;5.47;;
36663;SDS011;53333;51.976;20.144;2023-05-07T12:08:41;8.55;;;3.65;;
36663;SDS011;53333;51.976;20.144;2023-05-07T12:11:22;6.57;;;3.28;;
36663;SDS011;53333;51.976;20.144;2023-05-07T12:13:56;5.43;;;3.35;;
36663;SDS011;53333;51.976;20.144;2023-05-07T12:16:30;4.97;;;3.10;;
36663;SDS011;53333;51.976;20.144;2023-05-07T12:19:04;4.90;;;3.30;;
36663;SDS011;53333;51.976;20.144;2023-05-07T12:21:39;5.97;;;3.10;;
36663;SDS011;53333;51.976;20.144;2023-05-07T12:24:13;6.05;;;3.10;;
36663;SDS011;53333;51.976;20.144;2023-05-07T12:26:47;4.95;;;3.00;;
36663;SDS011;53333;51.976;20.144;2023-05-07T12:31:53;9.18;;;3.03;;
36663;SDS011;53333;51.976;20.144;2023-05-07T12:34:27;5.50;;;3.05;;
36663;SDS011;53333;51.976;20.144;2023-05-07T12:37:02;5.53;;;2.85;;
36663;SDS011;53333;51.976;20.144;2023-05-07T12:39:36;5.63;;;3.30;;
36663;SDS011;53333;51.976;20.144;2023-05-07T12:42:09;3.90;;;2.65;;
36663;SDS011;53333;51.976;20.144;2023-05-07T12:44:47;4.25;;;2.67;;
36663;SDS011;53333;51.976;20.144;2023-05-07T12:47:20;2.55;;;2.25;;
36663;SDS011;53333;51.976;20.144;2023-05-07T12:49:54;5.50;;;2.70;;
36663;SDS011;53333;51.976;20.144;2023-05-07T12:52:28;4.63;;;2.92;;
36663;SDS011;53333;51.976;20.144;2023-05-07T12:55:04;4.22;;;2.83;;
36663;SDS011;53333;51.976;20.144;2023-05-07T12:57:38;3.50;;;2.85;;
36663;SDS011;53333;51.976;20.144;2023-05-07T13:00:12;6.38;;;2.55;;
36663;SDS011;53333;51.976;20.144;2023-05-07T13:02:46;19.40;;;7.30;;
36663;SDS011;53333;51.976;20.144;2023-05-07T13:05:19;5.00;;;2.78;;
36663;SDS011;53333;51.976;20.144;2023-05-07T13:07:54;8.93;;;3.00;;
36663;SDS011;53333;51.976;20.144;2023-05-07T13:10:27;6.43;;;2.72;;
36663;SDS011;53333;51.976;20.144;2023-05-07T13:13:00;6.78;;;3.00;;
36663;SDS011;53333;51.976;20.144;2023-05-07T13:15:33;4.82;;;2.63;;
36663;SDS011;53333;51.976;20.144;2023-05-07T13:18:06;4.95;;;2.83;;
36663;SDS011;53333;51.976;20.144;2023-05-07T13:20:42;5.57;;;3.10;;
36663;SDS011;53333;51.976;20.144;2023-05-07T13:23:16;4.40;;;2.92;;
36663;SDS011;53333;51.976;20.144;2023-05-07T13:25:49;5.10;;;3.00;;
36663;SDS011;53333;51.976;20.144;2023-05-07T13:28:24;6.53;;;3.67;;
36663;SDS011;53333;51.976;20.144;2023-05-07T13:30:57;10.98;;;3.15;;
36663;SDS011;53333;51.976;20.144;2023-05-07T13:33:30;5.60;;;2.70;;
36663;SDS011;53333;51.976;20.144;2023-05-07T13:36:03;6.53;;;2.70;;
36663;SDS011;53333;51.976;20.144;2023-05-07T13:38:38;4.38;;;3.35;;
36663;SDS011;53333;51.976;20.144;2023-05-07T13:41:11;4.45;;;3.15;;
36663;SDS011;53333;51.976;20.144;2023-05-07T13:43:45;5.35;;;3.17;;
36663;SDS011;53333;51.976;20.144;2023-05-07T13:46:18;4.45;;;3.10;;
36663;SDS011;53333;51.976;20.144;2023-05-07T13:48:51;3.95;;;2.80;;
36663;SDS011;53333;51.976;20.144;2023-05-07T13:51:24;4.70;;;2.53;;
36663;SDS011;53333;51.976;20.144;2023-05-07T13:53:59;4.93;;;2.67;;
36663;SDS011;53333;51.976;20.144;2023-05-07T13:56:32;4.25;;;2.67;;
36663;SDS011;53333;51.976;20.144;2023-05-07T14:01:39;5.13;;;3.20;;
36663;SDS011;53333;51.976;20.144;2023-05-07T14:04:13;6.28;;;3.58;;
36663;SDS011;53333;51.976;20.144;2023-05-07T14:06:46;7.90;;;3.55;;
36663;SDS011;53333;51.976;20.144;2023-05-07T14:09:20;9.52;;;5.15;;
36663;SDS011;53333;51.976;20.144;2023-05-07T14:11:53;5.43;;;3.22;;
36663;SDS011;53333;51.976;20.144;2023-05-07T14:14:26;5.97;;;2.80;;
36663;SDS011;53333;51.976;20.144;2023-05-07T14:16:59;4.88;;;3.47;;
36663;SDS011;53333;51.976;20.144;2023-05-07T14:19:32;8.80;;;3.22;;
36663;SDS011;53333;51.976;20.144;2023-05-07T14:22:06;3.92;;;2.50;;
36663;SDS011;53333;51.976;20.144;2023-05-07T14:24:41;4.55;;;2.75;;
36663;SDS011;53333;51.976;20.144;2023-05-07T14:27:30;5.47;;;2.72;;
36663;SDS011;53333;51.976;20.144;2023-05-07T14:30:03;5.00;;;2.53;;
36663;SDS011;53333;51.976;20.144;2023-05-07T14:35:09;4.93;;;2.83;;
36663;SDS011;53333;51.976;20.144;2023-05-07T14:37:43;18.27;;;4.45;;
36663;SDS011;53333;51.976;20.144;2023-05-07T14:40:18;8.75;;;5.28;;
36663;SDS011;53333;51.976;20.144;2023-05-07T14:42:51;4.72;;;3.08;;
36663;SDS011;53333;51.976;20.144;2023-05-07T14:48:22;13.05;;;2.85;;
36663;SDS011;53333;51.976;20.144;2023-05-07T14:50:55;3.88;;;2.33;;
36663;SDS011;53333;51.976;20.144;2023-05-07T14:53:28;5.95;;;3.63;;
36663;SDS011;53333;51.976;20.144;2023-05-07T14:56:03;5.68;;;2.95;;
36663;SDS011;53333;51.976;20.144;2023-05-07T14:58:36;4.93;;;3.17;;
36663;SDS011;53333;51.976;20.144;2023-05-07T15:01:09;8.32;;;2.90;;
36663;SDS011;53333;51.976;20.144;2023-05-07T15:03:42;4.35;;;2.95;;
36663;SDS011;53333;51.976;20.144;2023-05-07T15:06:35;3.97;;;2.80;;
36663;SDS011;53333;51.976;20.144;2023-05-07T15:09:10;4.40;;;2.17;;
36663;SDS011;53333;51.976;20.144;2023-05-07T15:11:45;4.78;;;3.03;;
36663;SDS011;53333;51.976;20.144;2023-05-07T15:14:18;3.15;;;2.30;;
36663;SDS011;53333;51.976;20.144;2023-05-07T15:16:53;2.72;;;2.30;;
36663;SDS011;53333;51.976;20.144;2023-05-07T15:19:25;3.60;;;2.50;;
36663;SDS011;53333;51.976;20.144;2023-05-07T15:22:00;5.15;;;2.78;;
36663;SDS011;53333;51.976;20.144;2023-05-07T15:24:37;5.80;;;2.38;;
36663;SDS011;53333;51.976;20.144;2023-05-07T15:27:11;4.28;;;2.60;;
36663;SDS011;53333;51.976;20.144;2023-05-07T15:29:44;7.88;;;2.78;;
36663;SDS011;53333;51.976;20.144;2023-05-07T15:32:17;4.25;;;2.08;;
36663;SDS011;53333;51.976;20.144;2023-05-07T15:34:55;3.53;;;2.17;;
36663;SDS011;53333;51.976;20.144;2023-05-07T15:37:47;5.55;;;3.08;;
36663;SDS011;53333;51.976;20.144;2023-05-07T15:43:17;5.15;;;2.30;;
36663;SDS011;53333;51.976;20.144;2023-05-07T15:45:50;8.60;;;3.05;;
36663;SDS011;53333;51.976;20.144;2023-05-07T15:48:24;4.32;;;2.38;;
36663;SDS011;53333;51.976;20.144;2023-05-07T15:50:58;4.32;;;2.65;;
36663;SDS011;53333;51.976;20.144;2023-05-07T15:53:31;6.20;;;3.65;;
36663;SDS011;53333;51.976;20.144;2023-05-07T15:56:05;7.93;;;3.47;;
36663;SDS011;53333;51.976;20.144;2023-05-07T15:58:40;6.68;;;3.10;;